Time;durP1;ratioP1;P1;durP2;ratioP2;P2;SDS_P1;SDS_P2;PMS_P1;PMS_P2;Temp;Humidity;BMP_temperature;BMP_pressure;BME280_temperature;BME280_humidity;BME280_pressure;Samples;Min_cycle;Max_cycle;Signal;HPM_P1;HPM_P2
2021/01/22 00:03:50;;;;;;;1.93;0.73;;;;;;;;;;10128215;28;20030;-66
2021/01/22 00:08:47;;;;;;;1.00;0.40;;;;;;;;;;10137299;28;20035;-66
2021/01/22 00:13:44;;;;;;;2.50;0.43;;;;;;;;;;10130418;28;20042;-65
2021/01/22 00:18:42;;;;;;;2.03;0.70;;;;;;;;;;10147578;28;20093;-66
2021/01/22 00:23:39;;;;;;;4.70;0.40;;;;;;;;;;10146489;28;20061;-65
2021/01/22 00:28:37;;;;;;;3.00;0.60;;;;;;;;;;10149478;28;20401;-65
2021/01/22 00:33:34;;;;;;;0.30;0.30;;;;;;;;;;10151943;28;20047;-65
2021/01/22 00:38:31;;;;;;;1.93;0.60;;;;;;;;;;10145786;28;20060;-66
2021/01/22 00:43:29;;;;;;;0.63;0.50;;;;;;;;;;10148001;28;20035;-65
2021/01/22 00:48:26;;;;;;;0.50;0.50;;;;;;;;;;10142604;28;20034;-65
2021/01/22 00:53:24;;;;;;;1.13;0.50;;;;;;;;;;10154708;28;20031;-64
2021/01/22 00:58:21;;;;;;;5.53;0.93;;;;;;;;;;10147127;28;20031;-64
2021/01/22 01:03:23;;;;;;;1.05;0.82;;;;;;;;;;10152745;28;20385;-64
2021/01/22 01:08:21;;;;;;;2.93;1.53;;;;;;;;;;10167336;28;20045;-65
2021/01/22 01:13:44;;;;;;;4.60;2.08;;;;;;;;;;10151979;28;20042;-65
2021/01/22 01:18:54;;;;;;;5.65;2.83;;;;;;;;;;10166912;28;20557;-65
2021/01/22 01:23:52;;;;;;;6.53;2.17;;;;;;;;;;10162534;28;20152;-65
2021/01/22 01:28:49;;;;;;;2.57;2.03;;;;;;;;;;10156444;28;20081;-66
2021/01/22 01:33:47;;;;;;;4.57;2.53;;;;;;;;;;10158505;28;20030;-65
2021/01/22 01:38:44;;;;;;;5.03;2.30;;;;;;;;;;10133395;28;20117;-66
2021/01/22 01:43:41;;;;;;;8.37;2.67;;;;;;;;;;10149181;28;20215;-64
2021/01/22 01:48:39;;;;;;;6.13;2.37;;;;;;;;;;10157841;28;20074;-67
2021/01/22 01:53:36;;;;;;;8.87;2.67;;;;;;;;;;10156887;28;20041;-66
2021/01/22 01:58:34;;;;;;;5.37;2.73;;;;;;;;;;10157875;28;20031;-64
2021/01/22 02:03:31;;;;;;;2.70;2.27;;;;;;;;;;10150404;28;20042;-65
2021/01/22 02:08:29;;;;;;;3.23;2.30;;;;;;;;;;10155010;28;20047;-65
2021/01/22 02:13:27;;;;;;;2.53;2.03;;;;;;;;;;10159424;28;20030;-66
2021/01/22 02:18:24;;;;;;;4.63;2.10;;;;;;;;;;10158757;28;20118;-63
2021/01/22 02:23:23;;;;;;;5.57;1.50;;;;;;;;;;10160940;28;20038;-64
2021/01/22 02:28:21;;;;;;;4.32;1.60;;;;;;;;;;10160633;28;21204;-65
2021/01/22 02:33:18;;;;;;;3.93;0.90;;;;;;;;;;10156807;28;20398;-64
2021/01/22 02:38:16;;;;;;;4.68;1.02;;;;;;;;;;10157072;28;20053;-65
2021/01/22 02:43:15;;;;;;;0.80;0.50;;;;;;;;;;10167403;28;20039;-65
2021/01/22 02:48:14;;;;;;;0.60;0.60;;;;;;;;;;10146808;28;20037;-64
2021/01/22 02:53:11;;;;;;;2.65;0.35;;;;;;;;;;10160462;28;20524;-64
2021/01/22 02:58:14;;;;;;;0.47;0.30;;;;;;;;;;10144318;28;20117;-65
2021/01/22 03:03:32;;;;;;;0.90;0.28;;;;;;;;;;10171393;28;20043;-66
2021/01/22 03:08:30;;;;;;;1.00;0.30;;;;;;;;;;10159231;28;20070;-66
2021/01/22 03:13:27;;;;;;;1.60;0.33;;;;;;;;;;10160899;28;20031;-66
2021/01/22 03:18:25;;;;;;;0.40;0.30;;;;;;;;;;10138077;28;20404;-64
2021/01/22 03:23:22;;;;;;;0.20;0.20;;;;;;;;;;10153284;28;20038;-65
2021/01/22 03:28:19;;;;;;;0.50;0.30;;;;;;;;;;10176116;28;20035;-66
2021/01/22 03:33:17;;;;;;;0.70;0.33;;;;;;;;;;10155465;28;20050;-66
2021/01/22 03:38:14;;;;;;;4.20;0.60;;;;;;;;;;10155594;28;20050;-66
2021/01/22 03:43:12;;;;;;;2.80;0.30;;;;;;;;;;10152527;28;20031;-64
2021/01/22 03:48:09;;;;;;;1.03;0.40;;;;;;;;;;10150129;28;20037;-64
2021/01/22 03:53:06;;;;;;;3.37;0.40;;;;;;;;;;10150599;28;20035;-64
2021/01/22 03:58:04;;;;;;;0.93;0.40;;;;;;;;;;10149999;28;20320;-64
2021/01/22 04:03:01;;;;;;;2.70;0.60;;;;;;;;;;10134753;28;20027;-64
2021/01/22 04:07:59;;;;;;;0.23;0.23;;;;;;;;;;10140363;28;20518;-65
2021/01/22 04:12:57;;;;;;;0.50;0.50;;;;;;;;;;10151581;28;20046;-64
2021/01/22 04:17:54;;;;;;;0.98;0.30;;;;;;;;;;10142546;28;20107;-63
2021/01/22 04:22:52;;;;;;;0.20;0.20;;;;;;;;;;10151197;28;20609;-66
2021/01/22 04:27:49;;;;;;;0.33;0.33;;;;;;;;;;10154592;28;20035;-66
2021/01/22 04:32:46;;;;;;;0.20;0.20;;;;;;;;;;10169613;28;20042;-66
2021/01/22 04:37:44;;;;;;;0.30;0.30;;;;;;;;;;10163229;28;20046;-66
2021/01/22 04:42:42;;;;;;;3.53;0.37;;;;;;;;;;10170606;28;20712;-66
2021/01/22 04:47:40;;;;;;;1.15;0.20;;;;;;;;;;10174431;28;20350;-64
2021/01/22 04:52:38;;;;;;;1.02;0.30;;;;;;;;;;10152553;28;20103;-65
2021/01/22 04:57:38;;;;;;;0.98;0.40;;;;;;;;;;10182400;28;20570;-66
2021/01/22 05:02:36;;;;;;;2.05;0.50;;;;;;;;;;10161283;28;20039;-65
2021/01/22 05:07:33;;;;;;;0.50;0.30;;;;;;;;;;10164115;28;20518;-66
2021/01/22 05:12:35;;;;;;;0.40;0.30;;;;;;;;;;10166970;28;20417;-66
2021/01/22 05:17:33;;;;;;;0.45;0.40;;;;;;;;;;10149395;28;20513;-64
2021/01/22 05:22:30;;;;;;;0.40;0.40;;;;;;;;;;10157398;28;20518;-65
2021/01/22 05:27:28;;;;;;;1.07;0.80;;;;;;;;;;10156996;28;20109;-65
2021/01/22 05:32:29;;;;;;;0.50;0.50;;;;;;;;;;10171351;28;20137;-64
2021/01/22 05:37:27;;;;;;;0.63;0.50;;;;;;;;;;10155742;28;20501;-65
2021/01/22 05:42:43;;;;;;;0.37;0.37;;;;;;;;;;10157493;28;20492;-65
2021/01/22 05:47:41;;;;;;;1.10;0.40;;;;;;;;;;10139456;28;20045;-65
2021/01/22 05:52:38;;;;;;;1.77;0.30;;;;;;;;;;10153240;28;20035;-66
2021/01/22 05:57:39;;;;;;;1.87;0.40;;;;;;;;;;10151735;28;20478;-64
2021/01/22 06:02:36;;;;;;;2.03;0.50;;;;;;;;;;10146930;28;20068;-65
2021/01/22 06:07:34;;;;;;;2.33;0.70;;;;;;;;;;10144596;28;20049;-65
2021/01/22 06:12:32;;;;;;;2.58;0.75;;;;;;;;;;10178438;28;20039;-65
2021/01/22 06:17:29;;;;;;;1.13;0.67;;;;;;;;;;10146545;28;20054;-64
2021/01/22 06:22:30;;;;;;;1.00;0.70;;;;;;;;;;10177596;28;20066;-63
2021/01/22 06:27:27;;;;;;;3.25;0.75;;;;;;;;;;10160000;28;20523;-65
2021/01/22 06:32:27;;;;;;;3.97;0.97;;;;;;;;;;10159077;28;20400;-64
2021/01/22 06:37:25;;;;;;;3.17;1.00;;;;;;;;;;10169456;28;20050;-65
2021/01/22 06:42:23;;;;;;;6.07;1.02;;;;;;;;;;10151246;28;20489;-64
2021/01/22 06:47:20;;;;;;;3.15;0.93;;;;;;;;;;10162807;28;20050;-65
2021/01/22 06:52:17;;;;;;;2.30;1.67;;;;;;;;;;10156286;28;20039;-65
2021/01/22 06:57:15;;;;;;;4.03;1.30;;;;;;;;;;10155988;28;20050;-65
2021/01/22 07:02:31;;;;;;;3.07;1.10;;;;;;;;;;10130626;28;20113;-65
2021/01/22 07:07:44;;;;;;;3.17;1.52;;;;;;;;;;10136456;28;20543;-66
2021/01/22 07:12:45;;;;;;;3.67;1.88;;;;;;;;;;10134889;28;20789;-65
2021/01/22 07:17:47;;;;;;;3.63;1.50;;;;;;;;;;10142786;28;20113;-65
2021/01/22 07:22:52;;;;;;;6.53;2.25;;;;;;;;;;10162295;28;20075;-65
2021/01/22 07:27:49;;;;;;;3.72;1.95;;;;;;;;;;10159755;28;20466;-65
2021/01/22 07:32:51;;;;;;;5.43;2.30;;;;;;;;;;10167401;28;20049;-65
2021/01/22 07:37:49;;;;;;;4.95;2.33;;;;;;;;;;10171597;28;20398;-65
2021/01/22 07:42:47;;;;;;;4.43;2.40;;;;;;;;;;10158604;28;20046;-64
2021/01/22 07:47:47;;;;;;;7.35;2.80;;;;;;;;;;10154478;28;20039;-65
2021/01/22 07:52:48;;;;;;;5.53;2.63;;;;;;;;;;10157215;28;21397;-65
2021/01/22 07:57:46;;;;;;;11.30;3.50;;;;;;;;;;10154026;28;20457;-63
2021/01/22 08:02:56;;;;;;;9.07;3.33;;;;;;;;;;10180916;28;20513;-65
2021/01/22 08:07:53;;;;;;;7.57;3.85;;;;;;;;;;10165462;28;20035;-66
2021/01/22 08:12:55;;;;;;;5.83;3.73;;;;;;;;;;10153181;28;20042;-64
2021/01/22 08:17:53;;;;;;;12.35;4.93;;;;;;;;;;10175309;28;20049;-65
2021/01/22 08:22:55;;;;;;;10.73;3.85;;;;;;;;;;10157557;28;20045;-65
2021/01/22 08:27:56;;;;;;;8.65;4.53;;;;;;;;;;10153668;28;20122;-65
2021/01/22 08:32:54;;;;;;;10.10;4.32;;;;;;;;;;10157297;28;20605;-65
2021/01/22 08:37:52;;;;;;;7.35;3.95;;;;;;;;;;10146622;28;20043;-65
2021/01/22 08:42:59;;;;;;;8.93;5.15;;;;;;;;;;10145430;28;20046;-66
2021/01/22 08:47:57;;;;;;;8.40;4.10;;;;;;;;;;10151031;28;20129;-66
2021/01/22 08:53:06;;;;;;;11.30;4.80;;;;;;;;;;10169664;28;20092;-65
2021/01/22 08:58:05;;;;;;;9.43;4.47;;;;;;;;;;10155439;28;20053;-66
2021/01/22 09:03:02;;;;;;;;;;;;;;;;;;10153092;28;21158;-66
2021/01/22 09:08:09;;;;;;;9.52;3.80;;;;;;;;;;10154247;28;19918;-65
2021/01/22 09:13:09;;;;;;;8.85;4.32;;;;;;;;;;10176389;28;20051;-65
2021/01/22 09:18:20;;;;;;;13.98;4.97;;;;;;;;;;10150977;28;20715;-66
2021/01/22 09:23:17;;;;;;;7.55;4.15;;;;;;;;;;10161107;28;20051;-66
2021/01/22 09:28:14;;;;;;;9.10;4.83;;;;;;;;;;10161340;28;20246;-65
2021/01/22 09:33:13;;;;;;;7.33;3.13;;;;;;;;;;10173801;28;20043;-66
2021/01/22 09:38:10;;;;;;;12.05;3.88;;;;;;;;;;10158269;28;20090;-65
2021/01/22 09:43:08;;;;;;;7.97;3.93;;;;;;;;;;10165413;28;20033;-65
2021/01/22 09:48:05;;;;;;;12.47;3.90;;;;;;;;;;10161897;28;20038;-66
2021/01/22 09:53:02;;;;;;;11.07;3.37;;;;;;;;;;10151573;28;20066;-66
2021/01/22 09:58:00;;;;;;;6.87;3.53;;;;;;;;;;10162755;28;20130;-64
2021/01/22 10:02:58;;;;;;;10.20;3.77;;;;;;;;;;10165923;28;20034;-66
2021/01/22 10:07:56;;;;;;;9.85;3.33;;;;;;;;;;10174140;28;20049;-66
2021/01/22 10:12:53;;;;;;;8.02;2.70;;;;;;;;;;10154234;28;20047;-66
2021/01/22 10:17:51;;;;;;;6.90;2.57;;;;;;;;;;10156632;28;20074;-66
2021/01/22 10:22:48;;;;;;;5.07;2.43;;;;;;;;;;10163503;28;20038;-65
2021/01/22 10:27:46;;;;;;;4.50;2.40;;;;;;;;;;10173463;28;20050;-65
2021/01/22 10:32:43;;;;;;;5.87;2.47;;;;;;;;;;10152129;28;20050;-66
2021/01/22 10:37:41;;;;;;;6.57;2.10;;;;;;;;;;10159232;28;20814;-66
2021/01/22 10:42:38;;;;;;;9.03;1.83;;;;;;;;;;10163539;28;21592;-66
2021/01/22 10:47:35;;;;;;;4.23;1.60;;;;;;;;;;10169608;28;20043;-65
2021/01/22 10:52:34;;;;;;;8.82;2.45;;;;;;;;;;10169433;28;20137;-64
2021/01/22 10:57:32;;;;;;;6.73;2.53;;;;;;;;;;10154418;28;20134;-66
2021/01/22 11:02:29;;;;;;;7.80;2.75;;;;;;;;;;10164987;28;20501;-64
2021/01/22 11:07:26;;;;;;;11.33;2.40;;;;;;;;;;10156006;28;20224;-65
2021/01/22 11:12:24;;;;;;;7.80;2.33;;;;;;;;;;10157377;28;20433;-66
2021/01/22 11:17:21;;;;;;;3.53;1.47;;;;;;;;;;10173100;28;20030;-66
2021/01/22 11:22:19;;;;;;;18.40;3.17;;;;;;;;;;10183252;28;20042;-66
2021/01/22 11:27:16;;;;;;;7.53;1.83;;;;;;;;;;10178710;28;20038;-66
2021/01/22 11:32:13;;;;;;;13.67;2.17;;;;;;;;;;10172441;28;20050;-66
2021/01/22 11:37:11;;;;;;;8.73;2.53;;;;;;;;;;10160591;28;20572;-65
2021/01/22 11:42:09;;;;;;;5.28;2.55;;;;;;;;;;10172545;28;20042;-65
2021/01/22 11:47:07;;;;;;;7.90;2.47;;;;;;;;;;10162828;28;20042;-66
2021/01/22 11:52:04;;;;;;;8.20;2.90;;;;;;;;;;10169195;28;20077;-65
2021/01/22 11:57:02;;;;;;;9.10;3.37;;;;;;;;;;10152046;28;20081;-65
2021/01/22 12:01:59;;;;;;;6.30;2.43;;;;;;;;;;10172470;28;20041;-64
2021/01/22 12:06:57;;;;;;;10.23;3.23;;;;;;;;;;10159903;28;20042;-65
2021/01/22 12:11:54;;;;;;;9.37;3.57;;;;;;;;;;10163625;28;20520;-66
2021/01/22 12:16:51;;;;;;;10.67;2.90;;;;;;;;;;10151614;28;20508;-65
2021/01/22 12:21:49;;;;;;;4.50;2.43;;;;;;;;;;10164586;28;20138;-65
2021/01/22 12:26:46;;;;;;;7.63;1.77;;;;;;;;;;10168771;28;20524;-65
2021/01/22 12:31:44;;;;;;;5.13;2.47;;;;;;;;;;10168532;28;20038;-66
2021/01/22 12:36:41;;;;;;;7.27;2.10;;;;;;;;;;10156827;28;20065;-65
2021/01/22 12:41:38;;;;;;;5.53;2.00;;;;;;;;;;10163175;28;20042;-67
2021/01/22 12:46:36;;;;;;;6.07;1.73;;;;;;;;;;10169165;28;20519;-64
2021/01/22 12:51:33;;;;;;;3.73;2.47;;;;;;;;;;10169941;28;20046;-66
2021/01/22 12:56:31;;;;;;;5.23;2.13;;;;;;;;;;10175425;28;21198;-66
2021/01/22 13:01:29;;;;;;;4.85;2.25;;;;;;;;;;10179585;28;20052;-64
2021/01/22 13:06:26;;;;;;;4.07;1.93;;;;;;;;;;10175263;28;20041;-65
2021/01/22 13:11:24;;;;;;;3.47;1.70;;;;;;;;;;10169092;28;20098;-65
2021/01/22 13:16:21;;;;;;;3.60;1.03;;;;;;;;;;10177427;28;20395;-65
2021/01/22 13:21:18;;;;;;;4.37;1.53;;;;;;;;;;10163442;28;20042;-65
2021/01/22 13:26:16;;;;;;;5.07;1.83;;;;;;;;;;10178974;28;20508;-65
2021/01/22 13:31:13;;;;;;;6.10;1.87;;;;;;;;;;10177063;28;20050;-65
2021/01/22 13:36:11;;;;;;;3.70;1.60;;;;;;;;;;10174055;28;20309;-64
2021/01/22 13:41:08;;;;;;;7.60;2.10;;;;;;;;;;10137911;28;20042;-65
2021/01/22 13:46:06;;;;;;;0.80;0.80;;;;;;;;;;10166851;28;20497;-65
2021/01/22 13:51:04;;;;;;;9.17;1.90;;;;;;;;;;10173840;28;20042;-66
2021/01/22 13:56:02;;;;;;;6.70;1.30;;;;;;;;;;10147668;28;20043;-65
2021/01/22 14:00:59;;;;;;;3.50;1.27;;;;;;;;;;10173981;28;20043;-67
2021/01/22 14:05:56;;;;;;;3.00;1.37;;;;;;;;;;10157670;28;20026;-66
2021/01/22 14:10:54;;;;;;;4.33;1.90;;;;;;;;;;10172154;28;20070;-64
2021/01/22 14:15:51;;;;;;;3.37;1.43;;;;;;;;;;10152035;28;20398;-66
2021/01/22 14:20:49;;;;;;;3.77;1.27;;;;;;;;;;10175680;28;20501;-66
2021/01/22 14:25:46;;;;;;;3.43;1.53;;;;;;;;;;10182617;28;20034;-65
2021/01/22 14:30:44;;;;;;;5.77;1.17;;;;;;;;;;10165471;28;20047;-66
2021/01/22 14:35:41;;;;;;;3.83;1.53;;;;;;;;;;10177310;28;20035;-65
2021/01/22 14:40:39;;;;;;;6.47;1.20;;;;;;;;;;10158737;28;20035;-65
2021/01/22 14:45:36;;;;;;;4.60;1.57;;;;;;;;;;10143679;28;20375;-65
2021/01/22 14:50:33;;;;;;;8.40;1.70;;;;;;;;;;10170490;28;20042;-66
2021/01/22 14:55:31;;;;;;;2.93;0.90;;;;;;;;;;10168575;28;20038;-66
2021/01/22 15:00:28;;;;;;;12.47;1.30;;;;;;;;;;10145490;28;20046;-66
2021/01/22 15:05:26;;;;;;;3.90;1.63;;;;;;;;;;10164733;28;20054;-65
2021/01/22 15:10:24;;;;;;;6.87;1.23;;;;;;;;;;10164736;28;20474;-64
2021/01/22 15:15:21;;;;;;;4.47;1.15;;;;;;;;;;10143368;28;20038;-65
2021/01/22 15:20:19;;;;;;;2.23;1.07;;;;;;;;;;10171356;28;20062;-65
2021/01/22 15:25:16;;;;;;;5.23;1.30;;;;;;;;;;10182357;28;20042;-65
2021/01/22 15:30:14;;;;;;;1.70;1.20;;;;;;;;;;10159755;28;20043;-65
2021/01/22 15:35:12;;;;;;;1.47;0.80;;;;;;;;;;10157386;28;20379;-65
2021/01/22 15:40:12;;;;;;;4.30;1.58;;;;;;;;;;10162014;28;20070;-66
2021/01/22 15:45:10;;;;;;;2.47;0.95;;;;;;;;;;10159724;28;20066;-65
2021/01/22 15:50:08;;;;;;;4.97;2.00;;;;;;;;;;10161584;28;20353;-67
2021/01/22 15:55:05;;;;;;;5.17;1.23;;;;;;;;;;10146239;28;20774;-65
2021/01/22 16:00:08;;;;;;;6.93;0.75;;;;;;;;;;10162245;28;20446;-65
2021/01/22 16:05:07;;;;;;;6.40;0.93;;;;;;;;;;10154058;28;20043;-64
2021/01/22 16:10:05;;;;;;;2.53;0.90;;;;;;;;;;10164952;28;20038;-65
2021/01/22 16:15:03;;;;;;;5.07;1.40;;;;;;;;;;10159458;28;20054;-66
2021/01/22 16:20:00;;;;;;;2.77;1.10;;;;;;;;;;10162530;28;20043;-66
2021/01/22 16:24:58;;;;;;;7.50;1.33;;;;;;;;;;10171961;28;20031;-65
2021/01/22 16:29:55;;;;;;;2.23;1.33;;;;;;;;;;10173107;28;20057;-66
2021/01/22 16:34:53;;;;;;;10.77;1.60;;;;;;;;;;10174879;28;20394;-67
2021/01/22 16:39:55;;;;;;;1.40;1.30;;;;;;;;;;10174945;28;20039;-65
2021/01/22 16:44:52;;;;;;;2.63;1.52;;;;;;;;;;10167008;28;20473;-67
2021/01/22 16:49:49;;;;;;;2.77;1.43;;;;;;;;;;10166352;28;20397;-66
2021/01/22 16:54:47;;;;;;;1.60;1.20;;;;;;;;;;10176978;28;20035;-64
2021/01/22 16:59:44;;;;;;;6.93;1.27;;;;;;;;;;10159520;28;20106;-66
2021/01/22 17:04:42;;;;;;;9.40;1.57;;;;;;;;;;10180136;28;20038;-65
2021/01/22 17:09:39;;;;;;;6.57;1.70;;;;;;;;;;10160445;28;20073;-66
2021/01/22 17:14:37;;;;;;;1.03;0.80;;;;;;;;;;10163368;28;20038;-65
2021/01/22 17:19:34;;;;;;;10.30;1.93;;;;;;;;;;10147755;28;20030;-66
2021/01/22 17:24:32;;;;;;;8.68;2.05;;;;;;;;;;10181145;28;20046;-65
2021/01/22 17:29:29;;;;;;;6.60;1.17;;;;;;;;;;10171313;28;20084;-65
2021/01/22 17:34:27;;;;;;;5.33;1.07;;;;;;;;;;10175015;28;20022;-66
2021/01/22 17:39:24;;;;;;;6.20;1.43;;;;;;;;;;10174817;28;20405;-67
2021/01/22 17:44:21;;;;;;;0.43;0.43;;;;;;;;;;10147340;28;20034;-67
2021/01/22 17:49:19;;;;;;;3.33;0.83;;;;;;;;;;10166388;28;20073;-65
2021/01/22 17:54:18;;;;;;;3.63;1.70;;;;;;;;;;10167481;28;20413;-66
2021/01/22 17:59:15;;;;;;;6.20;1.58;;;;;;;;;;10152089;28;20049;-65
2021/01/22 18:04:13;;;;;;;0.53;0.53;;;;;;;;;;10146338;28;20531;-66
2021/01/22 18:09:10;;;;;;;7.13;1.80;;;;;;;;;;10157365;28;20035;-66
2021/01/22 18:14:08;;;;;;;4.60;0.77;;;;;;;;;;10163841;28;20525;-66
2021/01/22 18:19:05;;;;;;;4.50;0.93;;;;;;;;;;10163699;28;20034;-66
2021/01/22 18:24:03;;;;;;;1.93;0.80;;;;;;;;;;10173626;28;20400;-66
2021/01/22 18:29:01;;;;;;;11.23;1.20;;;;;;;;;;10173838;28;20043;-65
2021/01/22 18:33:58;;;;;;;2.83;1.13;;;;;;;;;;10157916;28;20294;-66
2021/01/22 18:38:56;;;;;;;3.07;1.73;;;;;;;;;;10168863;28;20054;-66
2021/01/22 18:43:53;;;;;;;4.22;1.08;;;;;;;;;;10162657;28;20034;-66
2021/01/22 18:48:51;;;;;;;6.60;1.40;;;;;;;;;;10159546;28;20509;-64
2021/01/22 18:53:48;;;;;;;2.07;1.23;;;;;;;;;;10152982;28;20118;-65
2021/01/22 18:58:46;;;;;;;3.83;1.47;;;;;;;;;;10157946;28;20043;-66
2021/01/22 19:03:43;;;;;;;10.90;1.50;;;;;;;;;;10165185;28;20127;-66
2021/01/22 19:08:41;;;;;;;5.30;1.37;;;;;;;;;;10156291;28;20039;-64
2021/01/22 19:13:38;;;;;;;6.07;2.03;;;;;;;;;;10126802;28;20340;-66
2021/01/22 19:23:41;;;;;;;7.32;1.88;;;;;;;;;;10240095;28;20069;-66
2021/01/22 19:28:39;;;;;;;7.23;1.57;;;;;;;;;;10243411;28;20096;-66
2021/01/22 19:33:36;;;;;;;5.27;1.90;;;;;;;;;;10231266;28;20040;-63
2021/01/22 19:38:34;;;;;;;15.33;2.70;;;;;;;;;;10232633;28;20026;-63
2021/01/22 19:43:31;;;;;;;10.50;3.03;;;;;;;;;;10241914;28;20025;-61
2021/01/22 19:48:28;;;;;;;10.60;3.10;;;;;;;;;;10238210;28;20034;-62
2021/01/22 19:53:27;;;;;;;6.27;1.60;;;;;;;;;;10219417;28;20504;-63
2021/01/22 19:58:24;;;;;;;6.53;2.03;;;;;;;;;;10194638;28;20725;-62
2021/01/22 20:03:21;;;;;;;8.80;2.07;;;;;;;;;;10217329;28;20030;-64
2021/01/22 20:08:19;;;;;;;8.67;2.97;;;;;;;;;;10182847;28;21172;-64
2021/01/22 20:13:16;;;;;;;2.43;1.63;;;;;;;;;;10244168;28;20419;-63
2021/01/22 20:18:15;;;;;;;4.47;2.60;;;;;;;;;;10239394;28;20041;-64
2021/01/22 20:23:12;;;;;;;4.78;1.63;;;;;;;;;;10246020;28;20077;-62
2021/01/22 20:28:10;;;;;;;8.00;2.53;;;;;;;;;;10241612;28;20125;-63
2021/01/22 20:33:07;;;;;;;3.83;1.40;;;;;;;;;;10217771;28;20037;-64
2021/01/22 20:38:11;;;;;;;13.23;2.43;;;;;;;;;;10224981;28;20031;-61
2021/01/22 20:43:08;;;;;;;5.25;1.67;;;;;;;;;;10220099;28;20301;-62
2021/01/22 20:48:06;;;;;;;4.63;1.83;;;;;;;;;;10244317;28;20034;-60
2021/01/22 20:53:03;;;;;;;4.83;1.70;;;;;;;;;;10190713;28;20277;-62
2021/01/22 20:58:01;;;;;;;11.07;2.13;;;;;;;;;;10223732;28;20694;-62
2021/01/22 21:02:58;;;;;;;5.20;1.77;;;;;;;;;;10239364;28;20042;-63
2021/01/22 21:07:56;;;;;;;6.50;3.07;;;;;;;;;;10208327;28;20037;-63
2021/01/22 21:12:53;;;;;;;6.63;2.53;;;;;;;;;;10216791;28;20536;-61
2021/01/22 21:17:50;;;;;;;4.93;2.37;;;;;;;;;;10214501;28;20096;-62
2021/01/22 21:22:48;;;;;;;7.80;2.77;;;;;;;;;;10242778;28;20084;-61
2021/01/22 21:27:45;;;;;;;6.40;2.27;;;;;;;;;;10210784;28;20029;-62
2021/01/22 21:32:43;;;;;;;10.50;2.47;;;;;;;;;;10227632;28;20070;-62
2021/01/22 21:37:40;;;;;;;9.20;3.20;;;;;;;;;;10218593;28;20046;-62
2021/01/22 21:42:38;;;;;;;3.83;2.87;;;;;;;;;;10238522;28;20295;-63
2021/01/22 21:47:36;;;;;;;9.17;3.00;;;;;;;;;;10229827;28;20038;-63
2021/01/22 21:52:33;;;;;;;11.30;2.78;;;;;;;;;;10213806;28;20133;-61
2021/01/22 21:57:31;;;;;;;6.10;3.10;;;;;;;;;;10229674;28;20034;-62
2021/01/22 22:02:28;;;;;;;2.17;1.60;;;;;;;;;;10230765;28;20030;-60
2021/01/22 22:07:26;;;;;;;7.33;3.13;;;;;;;;;;10242874;28;20030;-60
2021/01/22 22:12:23;;;;;;;6.07;2.67;;;;;;;;;;10239830;28;20133;-62
2021/01/22 22:17:20;;;;;;;7.37;2.87;;;;;;;;;;10226988;28;20405;-62
2021/01/22 22:22:18;;;;;;;8.53;3.63;;;;;;;;;;10225834;28;20124;-62
2021/01/22 22:27:15;;;;;;;8.57;3.17;;;;;;;;;;10232731;28;20038;-63
2021/01/22 22:32:12;;;;;;;11.80;4.33;;;;;;;;;;10238696;28;20045;-60
2021/01/22 22:37:10;;;;;;;11.10;3.93;;;;;;;;;;10224711;28;20117;-61
2021/01/22 22:42:08;;;;;;;6.83;3.60;;;;;;;;;;10213667;28;20042;-59
2021/01/22 22:47:05;;;;;;;9.52;3.88;;;;;;;;;;10222613;28;20081;-63
2021/01/22 22:52:03;;;;;;;9.77;3.77;;;;;;;;;;10221223;28;20061;-60
2021/01/22 22:57:00;;;;;;;9.10;4.00;;;;;;;;;;10238312;28;20033;-62
2021/01/22 23:01:58;;;;;;;11.23;4.33;;;;;;;;;;10221225;28;20087;-63
2021/01/22 23:06:55;;;;;;;6.33;3.77;;;;;;;;;;10224258;28;20116;-62
2021/01/22 23:11:52;;;;;;;6.80;3.37;;;;;;;;;;10220465;28;20133;-62
2021/01/22 23:16:50;;;;;;;3.77;3.33;;;;;;;;;;10243686;28;20030;-62
2021/01/22 23:21:47;;;;;;;6.87;4.33;;;;;;;;;;10236399;28;20061;-62
2021/01/22 23:26:45;;;;;;;5.90;3.60;;;;;;;;;;10249413;28;20045;-62
2021/01/22 23:31:42;;;;;;;12.40;4.97;;;;;;;;;;10228053;28;20161;-61
2021/01/22 23:36:39;;;;;;;8.63;3.17;;;;;;;;;;10227474;28;20038;-62
2021/01/22 23:41:37;;;;;;;5.27;3.00;;;;;;;;;;10238151;28;20033;-62
2021/01/22 23:46:34;;;;;;;9.30;5.07;;;;;;;;;;10197454;28;20045;-61
2021/01/22 23:51:32;;;;;;;7.47;4.03;;;;;;;;;;10247434;28;20041;-61
2021/01/22 23:56:29;;;;;;;9.17;4.57;;;;;;;;;;10225204;28;20427;-61
